Time;durP1;ratioP1;P1;durP2;ratioP2;P2;SDS_P1;SDS_P2;PMS_P1;PMS_P2;Temp;Humidity;BMP_temperature;BMP_pressure;BME280_temperature;BME280_humidity;BME280_pressure;Samples;Min_cycle;Max_cycle;Signal;HPM_P1;HPM_P2
2022/08/16 00:00:48;;;;;;;44.90;29.40;;;19.60;99.90;;;;;;5103366;29;20185;-46
2022/08/16 00:03:18;;;;;;;41.27;24.80;;;19.50;99.90;;;;;;5112498;28;20875;-47
2022/08/16 00:05:49;;;;;;;38.00;25.00;;;19.50;99.90;;;;;;5102350;28;20554;-46
2022/08/16 00:08:20;;;;;;;52.30;29.90;;;19.40;99.90;;;;;;5104262;28;20624;-48
2022/08/16 00:10:50;;;;;;;54.17;31.07;;;19.40;99.90;;;;;;5103698;29;20187;-46
2022/08/16 00:13:21;;;;;;;50.87;32.13;;;19.40;99.90;;;;;;5101304;29;20266;-46
2022/08/16 00:15:51;;;;;;;60.73;36.33;;;19.40;99.90;;;;;;5099732;29;20750;-47
2022/08/16 00:18:22;;;;;;;57.00;33.73;;;19.30;99.90;;;;;;5102399;29;20523;-45
2022/08/16 00:20:53;;;;;;;55.70;31.97;;;19.40;99.90;;;;;;5101480;29;20252;-45
2022/08/16 00:23:24;;;;;;;37.53;23.87;;;19.30;99.90;;;;;;5107708;28;20187;-46
2022/08/16 00:25:54;;;;;;;40.40;26.40;;;19.30;99.90;;;;;;5099268;29;20232;-46
2022/08/16 00:28:25;;;;;;;49.97;29.07;;;19.40;99.90;;;;;;5103537;29;20959;-46
2022/08/16 00:30:56;;;;;;;32.13;23.50;;;19.40;99.90;;;;;;5095067;28;20281;-46
2022/08/16 00:33:27;;;;;;;42.90;26.00;;;19.40;99.90;;;;;;5097327;29;20192;-45
2022/08/16 00:35:58;;;;;;;45.17;22.90;;;19.40;99.90;;;;;;5100121;28;20527;-46
2022/08/16 00:38:28;;;;;;;23.77;17.87;;;19.40;99.90;;;;;;5097289;29;20440;-46
2022/08/16 00:41:00;;;;;;;27.73;20.00;;;19.30;99.90;;;;;;5101530;29;20203;-48
2022/08/16 00:43:35;;;;;;;31.83;23.43;;;19.30;99.90;;;;;;5110529;28;20692;-45
2022/08/16 00:46:11;;;;;;;30.37;22.23;;;19.30;99.90;;;;;;5103801;28;20481;-46
2022/08/16 00:48:43;;;;;;;25.93;20.10;;;19.30;99.90;;;;;;5143975;28;20989;-45
2022/08/16 00:51:16;;;;;;;32.70;22.90;;;19.30;99.90;;;;;;5104341;29;20435;-46
2022/08/16 00:53:48;;;;;;;26.03;19.07;;;19.30;99.90;;;;;;5101831;29;20438;-48
2022/08/16 00:56:23;;;;;;;24.13;18.13;;;19.30;99.90;;;;;;5104843;29;20508;-45
2022/08/16 00:58:54;;;;;;;26.93;19.40;;;19.30;99.90;;;;;;5100763;28;20922;-46
2022/08/16 01:01:26;;;;;;;33.80;23.50;;;19.30;99.90;;;;;;5103366;29;20489;-46
2022/08/16 01:03:57;;;;;;;26.63;18.67;;;19.30;99.90;;;;;;5107068;28;20215;-45
2022/08/16 01:06:28;;;;;;;22.87;18.20;;;19.30;99.90;;;;;;5107509;23;20970;-49
2022/08/16 01:09:03;;;;;;;26.00;17.27;;;19.30;99.90;;;;;;5085428;28;20494;-46
2022/08/16 01:11:36;;;;;;;22.60;16.87;;;19.20;99.90;;;;;;5097669;28;20443;-47
2022/08/16 01:14:29;;;;;;;29.27;21.00;;;19.10;99.90;;;;;;5080685;28;20448;-46
2022/08/16 01:17:01;;;;;;;27.77;19.47;;;19.10;99.90;;;;;;5080636;28;20470;-48
2022/08/16 01:19:45;;;;;;;25.70;19.27;;;19.00;99.90;;;;;;5075076;29;20447;-46
2022/08/16 01:22:36;;;;;;;30.50;17.90;;;19.00;99.90;;;;;;5083253;29;20476;-49
2022/08/16 01:25:21;;;;;;;20.93;17.10;;;19.00;99.90;;;;;;5077141;29;20466;-48
2022/08/16 01:27:55;;;;;;;19.07;15.60;;;18.90;99.90;;;;;;5082539;28;20443;-47
2022/08/16 01:30:31;;;;;;;16.90;14.87;;;18.90;99.90;;;;;;5079548;29;20476;-49
2022/08/16 01:33:04;;;;;;;19.93;16.83;;;18.90;99.90;;;;;;5075199;28;20432;-46
2022/08/16 01:35:40;;;;;;;22.23;17.20;;;18.80;99.90;;;;;;5099175;28;20448;-47
2022/08/16 01:38:17;;;;;;;16.93;14.90;;;18.80;99.90;;;;;;5083195;28;20476;-47
2022/08/16 01:40:50;;;;;;;18.97;16.43;;;18.80;99.90;;;;;;5087117;29;20497;-46
2022/08/16 01:43:22;;;;;;;20.73;15.50;;;18.80;99.90;;;;;;5090768;29;20443;-46
2022/08/16 01:46:05;;;;;;;21.77;16.70;;;18.80;99.90;;;;;;5078772;29;20455;-49
2022/08/16 01:48:36;;;;;;;17.10;14.50;;;18.80;99.90;;;;;;5077394;29;20465;-47
2022/08/16 01:51:06;;;;;;;18.40;16.03;;;18.80;99.90;;;;;;5077855;28;20455;-48
2022/08/16 01:53:37;;;;;;;20.73;15.13;;;18.80;99.90;;;;;;5084635;29;20540;-48
2022/08/16 01:56:08;;;;;;;18.90;14.90;;;18.90;99.90;;;;;;5093161;28;20204;-47
2022/08/16 01:58:39;;;;;;;16.43;14.73;;;18.80;99.90;;;;;;5081916;28;20198;-47
2022/08/16 02:01:10;;;;;;;20.50;16.97;;;18.80;99.90;;;;;;5082433;29;20448;-46
2022/08/16 02:03:40;;;;;;;17.13;14.97;;;18.80;99.90;;;;;;5090213;28;20188;-47
2022/08/16 02:06:11;;;;;;;23.60;16.60;;;18.80;99.90;;;;;;5087734;29;20475;-47
2022/08/16 02:08:42;;;;;;;31.40;20.90;;;18.80;99.90;;;;;;5077978;28;20208;-48
2022/08/16 02:11:13;;;;;;;22.50;17.10;;;18.80;99.90;;;;;;5086089;28;20179;-46
2022/08/16 02:13:44;;;;;;;20.60;16.73;;;18.80;99.90;;;;;;5081878;29;20208;-49
2022/08/16 02:16:15;;;;;;;20.17;14.73;;;18.70;99.90;;;;;;5086134;28;20468;-47
2022/08/16 02:18:47;;;;;;;15.73;14.13;;;18.70;99.90;;;;;;5078316;29;20440;-48
2022/08/16 02:21:18;;;;;;;17.40;15.50;;;18.70;99.90;;;;;;5085194;29;20180;-47
2022/08/16 02:23:49;;;;;;;21.30;15.47;;;18.70;99.90;;;;;;5086486;29;20439;-47
2022/08/16 02:26:19;;;;;;;16.43;14.63;;;18.70;99.90;;;;;;5079207;29;21021;-47
2022/08/16 02:28:50;;;;;;;19.90;15.27;;;18.70;99.90;;;;;;5085844;29;20207;-47
2022/08/16 02:31:21;;;;;;;21.40;17.70;;;18.70;99.90;;;;;;5090893;29;20667;-47
2022/08/16 02:33:52;;;;;;;31.27;20.07;;;18.70;99.90;;;;;;5082879;29;20668;-47
2022/08/16 02:36:23;;;;;;;25.93;18.40;;;18.80;99.90;;;;;;5087199;29;20495;-47
2022/08/16 02:38:53;;;;;;;20.73;16.63;;;18.70;99.90;;;;;;5083292;29;20668;-46
2022/08/16 02:41:24;;;;;;;21.40;14.53;;;18.70;99.90;;;;;;5072492;29;20285;-47
2022/08/16 02:43:54;;;;;;;24.60;18.70;;;18.70;99.90;;;;;;5084217;28;20184;-48
2022/08/16 02:46:25;;;;;;;20.90;17.43;;;18.70;99.90;;;;;;5078782;29;20211;-46
2022/08/16 02:48:55;;;;;;;31.03;20.47;;;18.70;99.90;;;;;;5082809;29;20216;-47
2022/08/16 02:51:26;;;;;;;23.20;18.93;;;18.70;99.90;;;;;;5082329;28;20211;-47
2022/08/16 02:53:58;;;;;;;20.97;17.43;;;18.70;99.90;;;;;;5083424;29;20180;-47
2022/08/16 02:56:28;;;;;;;28.27;18.83;;;18.70;99.90;;;;;;5082826;29;20546;-47
2022/08/16 02:58:59;;;;;;;26.40;21.07;;;18.60;99.90;;;;;;5083677;28;20523;-48
2022/08/16 03:01:31;;;;;;;23.10;17.60;;;18.60;99.90;;;;;;5079378;28;20206;-47
2022/08/16 03:04:04;;;;;;;24.70;18.37;;;18.60;99.90;;;;;;5083274;28;20184;-47
2022/08/16 03:06:35;;;;;;;22.77;17.20;;;18.60;99.90;;;;;;5083986;28;20482;-47
2022/08/16 03:09:05;;;;;;;31.33;22.23;;;18.60;99.90;;;;;;5078938;29;21504;-47
2022/08/16 03:11:36;;;;;;;26.07;19.87;;;18.60;99.90;;;;;;5095429;29;20219;-47
2022/08/16 03:14:06;;;;;;;26.07;19.37;;;18.70;99.90;;;;;;5080462;28;20706;-46
2022/08/16 03:16:37;;;;;;;27.63;20.30;;;18.60;99.90;;;;;;5079995;29;20244;-47
2022/08/16 03:19:08;;;;;;;32.00;22.90;;;18.60;99.90;;;;;;5087686;29;20615;-47
2022/08/16 03:21:39;;;;;;;27.60;19.97;;;18.60;99.90;;;;;;5076082;28;20271;-47
2022/08/16 03:24:09;;;;;;;28.07;18.97;;;18.60;99.90;;;;;;5081746;29;20539;-47
2022/08/16 03:26:40;;;;;;;18.53;16.57;;;18.60;99.90;;;;;;5082438;29;20615;-48
2022/08/16 03:29:11;;;;;;;18.77;15.60;;;18.60;99.90;;;;;;5074266;29;20212;-47
2022/08/16 03:31:41;;;;;;;20.70;16.03;;;18.60;99.90;;;;;;5064678;29;20192;-47
2022/08/16 03:34:12;;;;;;;31.27;22.23;;;18.50;99.90;;;;;;5076960;28;20254;-46
2022/08/16 03:36:42;;;;;;;35.97;24.80;;;18.50;99.90;;;;;;5079459;28;20208;-48
2022/08/16 03:39:13;;;;;;;33.70;23.63;;;18.50;99.90;;;;;;5085355;29;20723;-46
2022/08/16 03:41:44;;;;;;;38.40;24.70;;;18.50;99.90;;;;;;5087308;29;20199;-47
2022/08/16 03:44:14;;;;;;;28.57;20.00;;;18.50;99.90;;;;;;5082952;29;20202;-48
2022/08/16 03:46:45;;;;;;;22.17;17.03;;;18.50;99.90;;;;;;5088560;28;20239;-51
2022/08/16 03:49:16;;;;;;;25.33;18.93;;;18.50;99.90;;;;;;5100867;28;20219;-47
2022/08/16 03:51:46;;;;;;;38.63;24.80;;;18.50;99.90;;;;;;5076634;29;20192;-47
2022/08/16 03:54:17;;;;;;;29.60;21.30;;;18.50;99.90;;;;;;5084113;28;20202;-46
2022/08/16 03:56:48;;;;;;;45.70;27.20;;;18.50;99.90;;;;;;5079557;29;20223;-49
2022/08/16 03:59:18;;;;;;;33.30;23.10;;;18.60;99.90;;;;;;5077916;29;20199;-46
2022/08/16 04:01:49;;;;;;;28.13;20.60;;;18.50;99.90;;;;;;5080352;29;20207;-46
2022/08/16 04:04:19;;;;;;;39.57;26.87;;;18.60;99.90;;;;;;5082366;29;20187;-48
2022/08/16 04:06:50;;;;;;;31.50;22.87;;;18.60;99.90;;;;;;5081472;29;20253;-48
2022/08/16 04:09:21;;;;;;;36.57;23.97;;;18.60;99.90;;;;;;5087452;29;20336;-47
2022/08/16 04:11:51;;;;;;;41.17;23.83;;;18.60;99.90;;;;;;5080612;28;20207;-48
2022/08/16 04:14:22;;;;;;;37.53;27.10;;;18.70;99.90;;;;;;5103551;28;20192;-46
2022/08/16 04:16:52;;;;;;;36.67;25.37;;;18.70;99.90;;;;;;5088169;28;20204;-46
2022/08/16 04:19:24;;;;;;;44.60;27.07;;;18.70;99.90;;;;;;5083295;29;20234;-47
2022/08/16 04:21:55;;;;;;;34.87;24.57;;;18.70;99.90;;;;;;5079066;28;20188;-47
2022/08/16 04:24:26;;;;;;;37.83;25.00;;;18.70;99.90;;;;;;5098110;29;20436;-46
2022/08/16 04:26:56;;;;;;;51.47;29.57;;;18.80;99.90;;;;;;5076331;28;20199;-48
2022/08/16 04:29:27;;;;;;;40.90;25.63;;;18.80;99.90;;;;;;5084903;29;20258;-48
2022/08/16 04:31:58;;;;;;;42.93;28.60;;;18.80;99.90;;;;;;5074787;28;20184;-49
2022/08/16 04:34:32;;;;;;;38.93;28.37;;;18.80;99.90;;;;;;5079115;29;20440;-45
2022/08/16 04:37:03;;;;;;;43.37;27.53;;;18.80;99.90;;;;;;5079165;28;20211;-46
2022/08/16 04:39:35;;;;;;;34.97;23.37;;;18.90;99.90;;;;;;5079841;29;20952;-46
2022/08/16 04:42:06;;;;;;;39.47;25.17;;;19.00;99.90;;;;;;5084658;28;20191;-47
2022/08/16 04:44:37;;;;;;;33.70;21.50;;;19.00;99.90;;;;;;5100919;28;20531;-48
2022/08/16 04:47:07;;;;;;;27.57;22.13;;;19.10;99.90;;;;;;5086983;29;20550;-47
2022/08/16 04:49:38;;;;;;;27.87;20.70;;;19.20;99.90;;;;;;5083107;29;20216;-47
2022/08/16 04:52:09;;;;;;;36.87;23.67;;;19.20;99.90;;;;;;5083069;29;20195;-48
2022/08/16 04:54:40;;;;;;;26.10;20.07;;;19.40;99.90;;;;;;5085558;29;20192;-47
2022/08/16 04:57:10;;;;;;;33.00;24.23;;;19.50;99.90;;;;;;5076430;29;20211;-47
2022/08/16 04:59:41;;;;;;;37.07;24.17;;;19.70;99.90;;;;;;5083240;29;20456;-48
2022/08/16 05:02:12;;;;;;;43.23;26.33;;;20.10;99.90;;;;;;5072957;29;20683;-47
2022/08/16 05:04:42;;;;;;;28.73;20.43;;;21.20;99.90;;;;;;5088571;29;20184;-47
2022/08/16 05:07:13;;;;;;;26.60;17.80;;;22.10;99.90;;;;;;5075706;28;20669;-48
2022/08/16 05:09:43;;;;;;;19.67;14.93;;;22.10;99.90;;;;;;5084368;29;20223;-49
2022/08/16 05:12:14;;;;;;;17.57;15.67;;;21.80;99.90;;;;;;5080969;28;20184;-47
2022/08/16 05:14:44;;;;;;;16.10;14.40;;;21.60;99.90;;;;;;5073638;28;20267;-47
2022/08/16 05:17:15;;;;;;;19.90;13.90;;;21.60;99.90;;;;;;5081320;28;20211;-48
2022/08/16 05:19:46;;;;;;;19.40;15.30;;;21.60;99.90;;;;;;5080212;28;20185;-48
2022/08/16 05:22:17;;;;;;;20.90;15.87;;;21.80;99.90;;;;;;5077614;29;20274;-48
2022/08/16 05:24:48;;;;;;;16.17;12.03;;;22.70;99.90;;;;;;5063830;28;20195;-49
2022/08/16 05:27:19;;;;;;;18.97;11.93;;;24.20;99.90;;;;;;5073934;28;20219;-48
2022/08/16 05:29:49;;;;;;;11.67;9.57;;;25.60;99.90;;;;;;5081855;28;20475;-47
2022/08/16 05:32:20;;;;;;;10.27;9.20;;;27.20;99.90;;;;;;5067318;28;20199;-50
2022/08/16 05:34:50;;;;;;;9.30;8.40;;;28.80;99.90;;;;;;5074189;28;20192;-48
2022/08/16 05:37:23;;;;;;;9.67;8.33;;;30.20;99.90;;;;;;5092444;28;20243;-47
2022/08/16 05:39:53;;;;;;;10.13;8.30;;;31.30;93.00;;;;;;5098080;28;20225;-48
2022/08/16 05:42:24;;;;;;;13.97;8.87;;;32.00;80.00;;;;;;5081815;29;21312;-49
2022/08/16 05:44:55;;;;;;;14.93;10.30;;;32.40;74.80;;;;;;5079653;28;20245;-50
2022/08/16 05:47:26;;;;;;;13.80;8.70;;;33.20;67.00;;;;;;5086855;28;20219;-47
2022/08/16 05:49:56;;;;;;;7.77;6.97;;;33.80;61.60;;;;;;5073900;28;20310;-48
2022/08/16 05:52:27;;;;;;;15.03;8.70;;;34.50;59.10;;;;;;5082211;28;20214;-48
2022/08/16 05:54:57;;;;;;;10.20;7.90;;;35.10;54.70;;;;;;5082887;29;20214;-49
2022/08/16 05:57:28;;;;;;;7.23;6.50;;;35.70;51.90;;;;;;5077270;28;20706;-50
2022/08/16 05:59:59;;;;;;;7.23;6.63;;;36.00;51.80;;;;;;5062570;28;20192;-49
2022/08/16 06:02:31;;;;;;;12.98;7.30;;;36.10;50.60;;;;;;5061939;28;20203;-50
2022/08/16 06:05:04;;;;;;;11.15;8.18;;;36.50;49.30;;;;;;5078371;28;20189;-50
2022/08/16 06:07:35;;;;;;;10.32;7.40;;;36.90;47.50;;;;;;5066362;28;20617;-49
2022/08/16 06:10:06;;;;;;;7.35;6.63;;;37.10;47.00;;;;;;5079770;28;20239;-47
2022/08/16 06:12:38;;;;;;;8.48;7.68;;;37.40;46.30;;;;;;5083047;28;20210;-51
2022/08/16 06:15:13;;;;;;;10.05;8.13;;;37.80;45.40;;;;;;5077823;28;20527;-50
2022/08/16 06:17:44;;;;;;;8.45;7.65;;;38.10;43.70;;;;;;5081450;28;20222;-50
2022/08/16 06:20:19;;;;;;;8.52;7.82;;;38.00;43.90;;;;;;5077123;29;20191;-48
2022/08/16 06:22:54;;;;;;;11.98;9.43;;;38.40;44.00;;;;;;5074120;29;20195;-51
2022/08/16 06:25:26;;;;;;;8.23;7.03;;;38.50;42.00;;;;;;5081216;28;20183;-48
2022/08/16 06:27:57;;;;;;;6.97;6.43;;;38.80;41.80;;;;;;5081451;28;20187;-49
2022/08/16 06:30:28;;;;;;;12.32;7.13;;;39.30;40.40;;;;;;5077394;28;20229;-49
2022/08/16 06:32:59;;;;;;;6.57;5.93;;;39.00;40.30;;;;;;5071829;29;20187;-48
2022/08/16 06:35:30;;;;;;;8.25;7.55;;;39.30;40.00;;;;;;5080285;28;20559;-49
2022/08/16 06:38:02;;;;;;;9.45;8.43;;;39.50;39.20;;;;;;5082454;28;20193;-47
2022/08/16 06:40:33;;;;;;;11.80;7.25;;;39.10;38.40;;;;;;5070675;28;20222;-48
2022/08/16 06:43:03;;;;;;;6.25;5.85;;;39.20;38.90;;;;;;5074219;28;20201;-49
2022/08/16 06:45:37;;;;;;;9.68;6.88;;;39.10;39.20;;;;;;5077775;28;20222;-49
2022/08/16 06:48:08;;;;;;;6.03;5.35;;;39.50;38.50;;;;;;5093482;28;20183;-49
2022/08/16 06:50:40;;;;;;;9.40;7.63;;;39.90;37.70;;;;;;5079474;29;20215;-49
2022/08/16 06:53:10;;;;;;;7.35;5.72;;;40.00;37.10;;;;;;5080534;28;20285;-49
2022/08/16 06:55:42;;;;;;;6.95;6.20;;;39.80;37.20;;;;;;5067285;28;20213;-49
2022/08/16 06:58:13;;;;;;;8.82;7.15;;;40.00;36.70;;;;;;5074351;29;20194;-48
2022/08/16 07:00:43;;;;;;;6.88;6.38;;;40.20;36.30;;;;;;5079320;28;20704;-50
2022/08/16 07:03:14;;;;;;;10.85;7.35;;;40.40;35.90;;;;;;5080072;29;20302;-48
2022/08/16 07:05:45;;;;;;;9.20;7.88;;;40.70;35.60;;;;;;5081156;29;20223;-50
2022/08/16 07:08:15;;;;;;;9.82;7.85;;;40.90;35.00;;;;;;5072015;28;20195;-49
2022/08/16 07:10:47;;;;;;;10.27;7.82;;;40.50;35.00;;;;;;5077335;28;20235;-50
2022/08/16 07:13:19;;;;;;;8.18;7.47;;;40.50;35.60;;;;;;5085802;28;20720;-49
2022/08/16 07:15:50;;;;;;;13.82;9.07;;;40.50;35.00;;;;;;5075071;28;20203;-50
2022/08/16 07:18:21;;;;;;;14.73;8.73;;;40.80;34.70;;;;;;5079262;29;20190;-49
2022/08/16 07:20:52;;;;;;;8.27;6.55;;;41.00;34.50;;;;;;5080693;28;20215;-49
2022/08/16 07:23:25;;;;;;;10.68;6.38;;;41.20;34.30;;;;;;5084855;29;20191;-50
2022/08/16 07:25:56;;;;;;;10.85;7.07;;;41.10;34.60;;;;;;5081944;28;20337;-49
2022/08/16 07:28:27;;;;;;;9.63;7.55;;;41.30;33.30;;;;;;5061567;28;20271;-47
2022/08/16 07:31:00;;;;;;;7.75;6.55;;;41.60;33.20;;;;;;5078777;28;20191;-48
2022/08/16 07:33:34;;;;;;;6.57;5.97;;;41.50;33.20;;;;;;5083663;28;20183;-48
2022/08/16 07:36:06;;;;;;;9.38;7.80;;;41.80;33.10;;;;;;5077798;29;20218;-48
2022/08/16 07:38:37;;;;;;;8.10;6.15;;;41.90;32.60;;;;;;5081749;29;20631;-48
2022/08/16 07:41:08;;;;;;;9.13;7.70;;;41.90;33.10;;;;;;5065388;28;20195;-48
2022/08/16 07:43:39;;;;;;;12.07;6.93;;;41.80;32.40;;;;;;5080975;29;20247;-49
2022/08/16 07:46:12;;;;;;;10.25;8.73;;;41.40;33.00;;;;;;5073295;28;20676;-50
2022/08/16 07:48:42;;;;;;;7.03;6.32;;;41.50;33.10;;;;;;5058121;28;20258;-50
2022/08/16 07:51:13;;;;;;;6.07;5.68;;;41.90;32.50;;;;;;5084651;28;20188;-49
2022/08/16 07:53:46;;;;;;;7.95;7.25;;;41.90;32.20;;;;;;5077034;28;20189;-50
2022/08/16 07:56:17;;;;;;;8.25;6.57;;;42.20;32.00;;;;;;5081867;28;20634;-49
2022/08/16 07:58:48;;;;;;;18.08;9.13;;;42.50;32.00;;;;;;5074873;28;20707;-50
2022/08/16 08:01:18;;;;;;;13.13;7.97;;;42.00;31.20;;;;;;5070849;28;20206;-50
2022/08/16 08:03:51;;;;;;;9.20;7.78;;;41.70;30.70;;;;;;5073350;28;20195;-49
2022/08/16 08:06:26;;;;;;;6.72;6.10;;;41.60;31.20;;;;;;5059739;28;20320;-50
2022/08/16 08:08:57;;;;;;;7.25;6.35;;;40.60;32.70;;;;;;5070540;28;20261;-50
2022/08/16 08:11:29;;;;;;;6.30;5.85;;;41.00;32.40;;;;;;5072302;29;20270;-51
2022/08/16 08:14:00;;;;;;;6.93;6.22;;;41.30;32.30;;;;;;5077551;28;20508;-50
2022/08/16 08:16:32;;;;;;;7.30;6.70;;;41.80;31.70;;;;;;5083342;28;20207;-49
2022/08/16 08:19:03;;;;;;;6.82;6.22;;;40.80;31.30;;;;;;5080567;28;20192;-48
2022/08/16 08:21:34;;;;;;;7.35;6.65;;;40.90;32.10;;;;;;5079394;29;20702;-49
2022/08/16 08:24:08;;;;;;;7.70;6.82;;;40.70;32.30;;;;;;5083638;29;20194;-49
2022/08/16 08:26:39;;;;;;;8.40;7.63;;;41.00;32.50;;;;;;5082314;28;20215;-51
2022/08/16 08:29:09;;;;;;;8.38;7.03;;;41.20;32.20;;;;;;5071916;28;20560;-49
2022/08/16 08:31:41;;;;;;;9.27;6.22;;;41.60;32.30;;;;;;5076432;28;20191;-49
2022/08/16 08:34:11;;;;;;;9.07;7.75;;;41.30;32.40;;;;;;5085236;29;20183;-50
2022/08/16 08:36:42;;;;;;;8.98;8.07;;;41.00;31.90;;;;;;5083614;29;20279;-49
2022/08/16 08:39:14;;;;;;;8.90;7.97;;;40.50;33.10;;;;;;5083834;28;20599;-49
2022/08/16 08:41:46;;;;;;;7.75;6.97;;;40.00;34.10;;;;;;5076178;29;20191;-50
2022/08/16 08:44:17;;;;;;;8.30;7.32;;;39.80;35.40;;;;;;5083536;28;20179;-50
2022/08/16 08:46:48;;;;;;;10.50;9.50;;;39.50;35.90;;;;;;5079577;28;20234;-50
2022/08/16 08:49:19;;;;;;;8.60;7.70;;;38.00;38.00;;;;;;5078436;28;20311;-51
2022/08/16 08:51:49;;;;;;;10.05;7.90;;;37.10;39.70;;;;;;5092640;29;20249;-50
2022/08/16 08:54:20;;;;;;;8.55;6.90;;;36.70;40.50;;;;;;5080076;29;20180;-50
2022/08/16 08:56:52;;;;;;;10.65;8.13;;;36.20;41.60;;;;;;5077868;29;20302;-50
2022/08/16 08:59:23;;;;;;;8.10;6.03;;;35.90;42.40;;;;;;5077771;28;20197;-49
2022/08/16 09:01:53;;;;;;;11.25;7.60;;;35.40;43.30;;;;;;5077867;28;20582;-50
2022/08/16 09:04:25;;;;;;;7.63;6.82;;;34.60;44.00;;;;;;5084028;28;20685;-50
2022/08/16 09:06:56;;;;;;;6.60;5.90;;;33.60;44.50;;;;;;5080618;28;20246;-50
2022/08/16 09:09:27;;;;;;;7.05;6.10;;;32.80;45.50;;;;;;5082638;28;20245;-49
2022/08/16 09:11:58;;;;;;;7.47;6.13;;;32.10;46.70;;;;;;5077268;28;20175;-49
2022/08/16 09:14:29;;;;;;;7.20;6.60;;;31.60;48.00;;;;;;5074354;28;20183;-50
2022/08/16 09:17:00;;;;;;;10.03;6.70;;;31.20;48.50;;;;;;5082608;28;20210;-49
2022/08/16 09:19:33;;;;;;;7.90;7.23;;;30.80;48.60;;;;;;5078015;28;20195;-49
2022/08/16 09:22:04;;;;;;;8.63;7.73;;;30.10;50.20;;;;;;5074786;28;20808;-51
2022/08/16 09:24:35;;;;;;;7.43;6.73;;;29.50;52.20;;;;;;5065013;28;20505;-49
2022/08/16 09:27:06;;;;;;;6.60;6.00;;;29.40;52.80;;;;;;5071069;28;20207;-49
2022/08/16 09:29:36;;;;;;;7.90;7.20;;;29.60;53.30;;;;;;5065502;28;20191;-49
2022/08/16 09:32:07;;;;;;;11.60;6.60;;;29.90;52.50;;;;;;5080274;28;20199;-51
2022/08/16 09:34:38;;;;;;;10.23;8.60;;;29.90;52.20;;;;;;5079873;29;20782;-50
2022/08/16 09:37:08;;;;;;;6.67;5.97;;;29.80;52.70;;;;;;5082300;29;20559;-51
2022/08/16 09:39:39;;;;;;;7.40;6.20;;;29.70;53.20;;;;;;5070774;28;20196;-50
2022/08/16 09:42:10;;;;;;;13.33;6.83;;;29.90;52.60;;;;;;5077295;28;20203;-49
2022/08/16 09:44:41;;;;;;;8.87;6.63;;;29.90;52.20;;;;;;5074260;28;20191;-50
2022/08/16 09:47:11;;;;;;;11.13;8.13;;;29.80;52.50;;;;;;5072115;28;20824;-49
2022/08/16 09:49:43;;;;;;;13.00;7.20;;;29.90;52.90;;;;;;5070470;28;20634;-50
2022/08/16 09:52:14;;;;;;;7.90;7.20;;;29.80;53.30;;;;;;5056608;28;20199;-50
2022/08/16 09:54:45;;;;;;;6.40;5.80;;;29.60;53.20;;;;;;5070973;28;20475;-49
2022/08/16 09:57:15;;;;;;;8.67;7.43;;;29.60;53.70;;;;;;5074201;28;20494;-49
2022/08/16 09:59:46;;;;;;;7.27;6.60;;;29.70;53.90;;;;;;5085256;29;20524;-49
2022/08/16 10:02:17;;;;;;;8.53;6.93;;;29.70;54.10;;;;;;5072082;29;20287;-50
2022/08/16 10:04:47;;;;;;;7.70;6.83;;;29.80;53.90;;;;;;5076369;28;20226;-48
2022/08/16 10:07:18;;;;;;;7.80;7.00;;;29.80;53.10;;;;;;5077686;28;20219;-50
2022/08/16 10:09:49;;;;;;;13.10;8.20;;;29.90;52.60;;;;;;5075281;28;20203;-51
2022/08/16 10:15:12;;;;;;;10.37;7.60;;;29.10;54.10;;;;;;5081617;28;20185;-50
2022/08/16 10:17:44;;;;;;;8.30;7.60;;;29.10;54.90;;;;;;5077284;29;20499;-50
2022/08/16 10:20:15;;;;;;;7.53;6.63;;;29.20;55.50;;;;;;5075044;28;20543;-49
2022/08/16 10:22:46;;;;;;;10.67;6.70;;;29.20;54.50;;;;;;5079022;28;20442;-49
2022/08/16 10:25:17;;;;;;;7.73;6.87;;;29.50;53.10;;;;;;5070348;28;20280;-48
2022/08/16 10:27:48;;;;;;;7.93;7.23;;;29.80;53.20;;;;;;5078851;28;20443;-49
2022/08/16 10:30:18;;;;;;;6.97;6.37;;;29.70;50.80;;;;;;5074451;28;20974;-48
2022/08/16 10:32:49;;;;;;;8.60;7.07;;;29.30;52.00;;;;;;5090575;28;20235;-49
2022/08/16 10:35:20;;;;;;;6.40;5.80;;;29.20;52.80;;;;;;5079621;28;20237;-48
2022/08/16 10:37:51;;;;;;;6.97;6.30;;;29.20;53.40;;;;;;5068231;28;20330;-49
2022/08/16 10:40:22;;;;;;;8.03;6.53;;;29.40;52.50;;;;;;5064302;28;20202;-49
2022/08/16 10:42:53;;;;;;;7.50;5.37;;;29.60;52.40;;;;;;5074961;28;20432;-49
2022/08/16 10:45:24;;;;;;;5.50;5.00;;;30.00;52.00;;;;;;5066925;29;21097;-51
2022/08/16 10:47:56;;;;;;;10.10;7.17;;;30.20;50.30;;;;;;5074493;29;20195;-49
2022/08/16 10:50:27;;;;;;;9.90;6.20;;;30.10;50.50;;;;;;5088361;28;20471;-49
2022/08/16 10:53:00;;;;;;;6.47;5.90;;;30.10;50.50;;;;;;5078594;29;20518;-48
2022/08/16 10:55:32;;;;;;;7.10;6.30;;;30.20;50.20;;;;;;5076291;29;20436;-49
2022/08/16 10:58:05;;;;;;;7.53;5.40;;;30.20;50.60;;;;;;5075517;28;20440;-51
2022/08/16 11:00:39;;;;;;;14.67;6.73;;;30.40;50.60;;;;;;5077238;28;20489;-49
2022/08/16 11:03:10;;;;;;;9.73;5.90;;;30.60;50.10;;;;;;5063492;28;20443;-48
2022/08/16 11:05:42;;;;;;;5.90;5.50;;;30.40;49.50;;;;;;5080658;28;20463;-50
2022/08/16 11:08:12;;;;;;;11.60;6.33;;;30.00;49.70;;;;;;5078069;28;20191;-49
2022/08/16 11:10:44;;;;;;;9.00;6.77;;;29.80;50.50;;;;;;5082372;28;21033;-49
2022/08/16 11:13:18;;;;;;;6.43;5.87;;;29.70;50.60;;;;;;5078460;29;20231;-51
2022/08/16 11:15:49;;;;;;;8.03;6.50;;;29.60;50.60;;;;;;5076159;28;20513;-48
2022/08/16 11:18:19;;;;;;;6.03;5.50;;;29.70;50.90;;;;;;5077633;28;20896;-49
2022/08/16 11:20:50;;;;;;;6.83;5.77;;;29.80;50.70;;;;;;5072465;28;20195;-50
2022/08/16 11:23:21;;;;;;;9.87;6.93;;;29.90;50.70;;;;;;5081387;28;20197;-47
2022/08/16 11:25:53;;;;;;;8.70;5.60;;;30.00;50.10;;;;;;5073740;28;20219;-49
2022/08/16 11:28:24;;;;;;;9.63;7.23;;;30.20;50.00;;;;;;5070926;28;20202;-49
2022/08/16 11:30:55;;;;;;;16.47;11.10;;;30.30;50.00;;;;;;5108306;28;20471;-47
2022/08/16 11:33:25;;;;;;;9.60;7.43;;;30.40;49.60;;;;;;5079221;28;20543;-48
2022/08/16 11:35:56;;;;;;;5.90;5.40;;;30.30;49.20;;;;;;5087397;28;20222;-49
2022/08/16 11:38:27;;;;;;;5.40;5.00;;;30.30;48.80;;;;;;5078279;28;20187;-50
2022/08/16 11:41:00;;;;;;;6.73;6.17;;;30.40;49.80;;;;;;5073390;28;20187;-49
2022/08/16 11:43:37;;;;;;;7.07;5.17;;;30.50;49.00;;;;;;5074456;28;20202;-48
2022/08/16 11:46:11;;;;;;;12.87;5.70;;;30.50;49.50;;;;;;5077359;29;20553;-49
2022/08/16 11:48:44;;;;;;;8.47;7.37;;;30.60;48.60;;;;;;5090255;28;20439;-48
2022/08/16 11:51:15;;;;;;;7.90;6.30;;;30.70;48.60;;;;;;5066964;28;20447;-48
2022/08/16 11:53:46;;;;;;;7.03;6.37;;;30.40;47.20;;;;;;5073075;28;20446;-49
2022/08/16 11:56:16;;;;;;;10.93;6.83;;;29.90;48.30;;;;;;5080359;29;20302;-48
2022/08/16 11:58:47;;;;;;;9.97;6.50;;;29.90;49.10;;;;;;5075446;28;20199;-48
2022/08/16 12:01:18;;;;;;;7.30;5.27;;;30.00;49.00;;;;;;5086969;28;20209;-48
2022/08/16 12:03:49;;;;;;;6.57;6.07;;;30.20;48.80;;;;;;5072248;28;20628;-48
2022/08/16 12:06:20;;;;;;;8.73;6.73;;;30.60;47.60;;;;;;5081418;28;20467;-50
2022/08/16 12:08:56;;;;;;;6.50;5.80;;;30.40;47.50;;;;;;5078076;28;20273;-47
2022/08/16 12:11:27;;;;;;;6.73;5.93;;;30.50;47.50;;;;;;5078153;28;20482;-50
2022/08/16 12:14:02;;;;;;;7.37;6.67;;;30.70;47.30;;;;;;5074834;29;20537;-49
2022/08/16 12:16:34;;;;;;;5.50;5.10;;;30.70;47.20;;;;;;5081411;29;20215;-48
2022/08/16 12:19:07;;;;;;;6.00;5.50;;;31.00;47.60;;;;;;5083206;28;20549;-48
2022/08/16 12:21:38;;;;;;;6.77;6.20;;;30.90;47.50;;;;;;5080240;29;20439;-50
2022/08/16 12:24:08;;;;;;;6.63;6.13;;;31.00;47.20;;;;;;5074507;28;20439;-49
2022/08/16 12:26:39;;;;;;;5.30;4.90;;;30.90;46.80;;;;;;5076660;29;20214;-49
2022/08/16 12:29:10;;;;;;;5.33;4.83;;;30.60;46.80;;;;;;5082553;29;20608;-49
2022/08/16 12:31:42;;;;;;;8.53;6.53;;;30.70;47.60;;;;;;5084552;28;20479;-49
2022/08/16 12:34:12;;;;;;;8.97;6.03;;;31.00;46.90;;;;;;5081929;28;20187;-50
2022/08/16 12:36:45;;;;;;;7.60;5.83;;;31.30;47.20;;;;;;5081370;28;20203;-49
2022/08/16 12:39:16;;;;;;;5.50;5.20;;;31.40;45.50;;;;;;5079382;29;20202;-50
2022/08/16 12:41:47;;;;;;;7.50;6.63;;;31.60;44.90;;;;;;5080354;28;20187;-50
2022/08/16 12:44:18;;;;;;;6.00;5.40;;;31.30;44.90;;;;;;5078137;28;20215;-49
2022/08/16 12:48:56;;;;;;;5.30;4.90;;;31.00;44.70;;;;;;5080670;28;20213;-49
2022/08/16 12:49:39;;;;;;;6.73;6.03;;;30.90;45.80;;;;;;5082325;29;20230;-51
2022/08/16 12:52:10;;;;;;;6.50;5.90;;;30.80;45.80;;;;;;5083004;28;20447;-48
2022/08/16 12:54:41;;;;;;;8.70;5.10;;;30.70;45.90;;;;;;5076601;28;20631;-49
2022/08/16 12:57:11;;;;;;;6.00;5.50;;;30.70;46.50;;;;;;5074399;28;20485;-50
2022/08/16 12:59:42;;;;;;;5.93;5.33;;;30.90;45.90;;;;;;5066109;28;20667;-50
2022/08/16 13:02:13;;;;;;;5.67;5.23;;;31.00;45.00;;;;;;5081380;29;20237;-48